Data for 11/10/2006

Time Sea-Level Adjusted Pressure Absolute Pressure Temperature Relative Humidity Dew Point   
(mb) (inHg) (mb) (inHg) (C) (F) (%) (C) (F)
00:05 1020 30.12 849 25.07 -0.4 31.2 76 -4.2 24.4
00:10 1020 30.12 849 25.07 -0.5 31.2 77 -4 24.7
00:15 1020 30.12 849 25.07 -0.4 31.3 75 -4.4 24.1
00:20 1020 30.12 849 25.07 -0.3 31.4 76 -4.1 24.6
00:25 1020 30.12 849 25.07 -0.3 31.4 78 -3.8 25.2
00:30 1020 30.12 849 25.07 -0.3 31.5 76 -4 24.9
00:35 1020 30.12 849 25.07 -0.2 31.7 74 -4.2 24.5
00:40 1020 30.12 849 25.07 -0.1 31.8 73 -4.3 24.3
00:45 1020 30.12 849 25.07 0 32.1 72 -4.3 24.2
00:50 1020 30.12 850 25.1 0.3 32.5 72 -4.2 24.4
00:55 1020 30.12 850 25.1 0.5 32.9 71 -4.1 24.6
01:00 1020 30.12 850 25.1 0.4 32.8 70 -4.4 24
01:05 1020 30.12 850 25.1 0.4 32.7 73 -3.9 24.9
01:10 1020 30.12 850 25.1 0.2 32.4 74 -3.8 25.1
01:15 1020 30.12 850 25.1 0.5 32.8 72 -4 24.7
01:20 1020 30.12 850 25.1 0.7 33.3 70 -4.1 24.7
01:25 1020 30.12 850 25.1 0.7 33.3 70 -4.1 24.6
01:30 1020 30.12 850 25.1 0.6 33 71 -4 24.7
01:35 1021 30.15 850 25.1 0.4 32.7 73 -3.9 24.9
01:40 1021 30.15 850 25.1 0.4 32.8 72 -4.1 24.7
01:45 1021 30.15 850 25.1 0.4 32.7 72 -4 24.7
01:50 1021 30.15 850 25.1 0.3 32.5 73 -4 24.7
01:55 1021 30.15 850 25.1 0.3 32.6 73 -4 24.7
02:00 1021 30.15 850 25.1 0.1 32.2 74 -4 24.8
02:05 1021 30.15 850 25.1 0 32 75 -3.9 25
02:10 1021 30.15 850 25.1 -0.2 31.6 76 -4 24.9
02:15 1021 30.15 850 25.1 -0.2 31.6 75 -4.1 24.7
02:20 1021 30.15 850 25.1 -0.1 31.7 75 -4 24.7
02:25 1020 30.12 850 25.1 -0.3 31.4 76 -4.1 24.7
02:30 1021 30.15 850 25.1 -0.5 31.2 77 -4 24.9
02:35 1021 30.15 850 25.1 -0.5 31.1 76 -4.2 24.5
02:40 1021 30.15 850 25.1 -0.6 31 76 -4.2 24.4
02:45 1021 30.15 850 25.1 -0.6 31 76 -4.3 24.2
02:50 1021 30.15 850 25.1 -0.6 30.8 77 -4.2 24.4
02:55 1021 30.15 850 25.1 -0.9 30.5 78 -4.3 24.3
03:00 1021 30.15 850 25.1 -1.1 30.1 79 -4.2 24.4
03:05 1021 30.15 850 25.1 -1.2 29.8 80 -4.3 24.3
03:10 1021 30.15 850 25.1 -1.1 30 79 -4.4 24.2
03:15 1021 30.15 850 25.1 -1 30.2 79 -4.2 24.4
03:20 1021 30.15 850 25.1 -1 30.1 79 -4.2 24.5
03:25 1021 30.15 850 25.1 -1.1 30.1 80 -4.2 24.5
03:30 1021 30.15 850 25.1 -1.1 30.1 80 -4.2 24.5
03:35 1021 30.15 850 25.1 -1.2 29.9 80 -4.2 24.5
03:40 1021 30.15 850 25.1 -1.2 29.8 81 -4.2 24.5
03:45 1021 30.15 850 25.1 -1.3 29.7 80 -4.3 24.3
03:50 1021 30.15 850 25.1 -1.3 29.6 80 -4.3 24.3
03:55 1021 30.15 850 25.1 -1.4 29.5 81 -4.2 24.4
04:00 1021 30.15 850 25.1 -1.6 29.2 81 -4.3 24.2
04:05 1021 30.15 850 25.1 -1.6 29.1 82 -4.4 24.1
04:10 1021 30.15 850 25.1 -1.7 29 82 -4.4 24.1
04:15 1021 30.15 850 25.1 -1.7 28.9 82 -4.4 24.1
04:20 1021 30.15 850 25.1 -1.9 28.6 83 -4.4 24.2
04:25 1021 30.15 850 25.1 -2.1 28.2 84 -4.5 23.9
04:30 1021 30.15 850 25.1 -2.1 28.1 84 -4.6 23.8
04:35 1021 30.15 850 25.1 -2.1 28.2 83 -4.6 23.8
04:40 1021 30.15 850 25.1 -2.1 28.1 83 -4.7 23.6
04:45 1021 30.15 850 25.1 -2 28.5 82 -4.6 23.8
04:50 1021 30.15 850 25.1 -1.8 28.7 81 -4.6 23.7
04:55 1021 30.15 850 25.1 -1.7 28.9 81 -4.6 23.7
05:00 1021 30.15 850 25.1 -1.7 29 80 -4.7 23.5
05:05 1021 30.15 850 25.1 -1.8 28.8 81 -4.7 23.5
05:10 1021 30.15 851 25.13 -1.7 28.9 80 -4.8 23.4
05:15 1021 30.15 851 25.13 -1.8 28.8 80 -4.9 23.3
05:20 1021 30.15 851 25.13 -2.3 27.9 82 -5 23
05:25 1022 30.18 851 25.13 -2.6 27.4 82 -5.2 22.7
05:30 1022 30.18 851 25.13 -2.7 27.1 84 -5.1 22.8
05:35 1022 30.18 851 25.13 -2.6 27.3 83 -5.1 22.8
05:40 1022 30.18 851 25.13 -2.5 27.4 82 -5.2 22.6
05:45 1022 30.18 851 25.13 -2.5 27.6 81 -5.3 22.4
05:50 1022 30.18 851 25.13 -2.4 27.7 82 -5.1 22.9
05:55 1022 30.18 851 25.13 -2.2 28.1 81 -5 22.9
06:00 1022 30.18 851 25.13 -2.1 28.2 80 -5.1 22.8
06:05 1022 30.18 851 25.13 -2.5 27.5 81 -5.2 22.6
06:10 1022 30.18 851 25.13 -3 26.6 85 -5.3 22.5
06:15 1022 30.18 851 25.13 -3 26.6 84 -5.4 22.3
06:20 1022 30.18 851 25.13 -2.6 27.2 82 -5.3 22.4
06:25 1022 30.18 851 25.13 -2.7 27.1 83 -5.3 22.5
06:30 1022 30.18 851 25.13 -3.1 26.4 84 -5.4 22.3
06:35 1022 30.18 851 25.13 -3.2 26.3 84 -5.5 22.1
06:40 1022 30.18 851 25.13 -3.4 26 86 -5.4 22.3
06:45 1022 30.18 851 25.13 -2.9 26.8 83 -5.3 22.4
06:50 1022 30.18 851 25.13 -2.8 27 83 -5.3 22.4
06:55 1022 30.18 851 25.13 -2.8 26.9 83 -5.4 22.3
07:00 1022 30.18 851 25.13 -3.2 26.2 85 -5.5 22.1
07:05 1022 30.18 851 25.13 -3.3 26.1 84 -5.5 22.1
07:10 1022 30.18 851 25.13 -3 26.6 82 -5.7 21.8
07:15 1022 30.18 851 25.13 -2.9 26.8 82 -5.6 22
07:20 1022 30.18 851 25.13 -3 26.6 82 -5.6 21.9
07:25 1022 30.18 851 25.13 -2.8 26.9 81 -5.7 21.8
07:30 1022 30.18 851 25.13 -2.5 27.6 78 -5.7 21.7
07:35 1022 30.18 851 25.13 -2.3 27.8 78 -5.7 21.8
07:40 1022 30.18 851 25.13 -2.7 27.1 80 -5.7 21.8
07:45 1022 30.18 851 25.13 -2.9 26.8 80 -6 21.3
07:50 1022 30.18 851 25.13 -2.7 27.1 79 -5.9 21.4
07:55 1022 30.18 851 25.13 -2.7 27.2 78 -5.9 21.3
08:00 1022 30.18 851 25.13 -2.5 27.4 77 -6 21.2
08:05 1022 30.18 851 25.13 -2.5 27.6 77 -5.9 21.3
08:10 1022 30.18 851 25.13 -2.3 27.8 76 -6 21.3
08:15 1022 30.18 851 25.13 -1.9 28.5 74 -6 21.2
08:20 1022 30.18 851 25.13 -1.3 29.6 72 -5.8 21.6
08:25 1022 30.18 851 25.13 -0.7 30.8 69 -5.6 21.9
08:30 1022 30.18 851 25.13 -0.5 31.1 69 -5.5 22.1
08:35 1022 30.18 851 25.13 -0.9 30.4 70 -5.6 22
08:40 1022 30.18 851 25.13 -1 30.2 71 -5.6 21.9
08:45 1022 30.18 851 25.13 -0.8 30.6 70 -5.5 22
08:50 1022 30.18 851 25.13 0.1 32.2 66 -5.6 22
08:55 1022 30.18 851 25.13 0.7 33.3 63 -5.6 22
09:00 1022 30.18 851 25.13 1.5 34.7 61 -5.3 22.5
09:05 1022 30.18 851 25.13 1.4 34.6 62 -5.1 22.9
09:10 1022 30.18 851 25.13 1.7 35.1 59 -5.4 22.4
09:15 1022 30.18 851 25.13 1.3 34.4 61 -5.4 22.4
09:20 1022 30.18 851 25.13 1 33.7 63 -5.2 22.6
09:25 1022 30.18 851 25.13 1.1 33.9 64 -5 23
09:30 1022 30.18 851 25.13 1.2 34.2 64 -4.9 23.3
09:35 1022 30.18 851 25.13 1 33.8 63 -5.2 22.7
09:40 1022 30.18 851 25.13 1 33.9 62 -5.4 22.4
09:45 1022 30.18 851 25.13 1.9 35.4 61 -4.8 23.4
09:50 1021 30.15 851 25.13 2.7 36.8 58 -4.9 23.3
09:55 1021 30.15 851 25.13 2.7 36.9 58 -4.8 23.4
10:00 1021 30.15 851 25.13 2.9 37.3 56 -4.9 23.2
10:05 1021 30.15 850 25.1 2.9 37.2 58 -4.6 23.7
10:10 1021 30.15 850 25.1 3.1 37.6 57 -4.6 23.7
10:15 1021 30.15 850 25.1 3.4 38.1 56 -4.5 23.8
10:20 1021 30.15 850 25.1 3.3 37.9 57 -4.5 23.9
10:25 1021 30.15 850 25.1 3.1 37.5 58 -4.4 24
10:30 1021 30.15 850 25.1 3.5 38.2 55 -4.9 23.3
10:35 1021 30.15 850 25.1 3.5 38.3 55 -4.6 23.7
10:40 1021 30.15 850 25.1 3.8 38.8 55 -4.5 23.9
10:45 1021 30.15 850 25.1 3.9 39 53 -4.7 23.5
10:50 1021 30.15 850 25.1 4.3 39.7 50 -5.2 22.6
10:55 1021 30.15 850 25.1 4.8 40.6 50 -4.7 23.5
11:00 1021 30.15 850 25.1 4.6 40.3 47 -5.7 21.7
11:05 1021 30.15 850 25.1 4 39.2 51 -5.2 22.6
11:10 1021 30.15 850 25.1 4.8 40.7 48 -5.3 22.4
11:15 1021 30.15 850 25.1 4.6 40.2 48 -5.5 22.1
11:20 1021 30.15 850 25.1 4.5 40.1 46 -6 21.2
11:25 1021 30.15 850 25.1 5.3 41.5 44 -5.9 21.3
11:30 1021 30.15 850 25.1 6.2 43.1 43 -5.5 22
11:35 1021 30.15 850 25.1 6.5 43.7 42 -5.6 22
11:40 1021 30.15 850 25.1 6.7 44.1 41 -5.6 21.9
11:45 1021 30.15 850 25.1 5.6 42.1 45 -5.5 22.1
11:50 1020 30.12 850 25.1 5.9 42.6 42 -6.2 20.9
11:55 1020 30.12 850 25.1 6.3 43.3 41 -6 21.1
12:00 1020 30.12 849 25.07 6.4 43.5 41 -6.1 21.1
12:05 1020 30.12 849 25.07 6.8 44.3 40 -6 21.3
12:10 1020 30.12 849 25.07 7.1 44.8 37 -6.4 20.4
12:15 1020 30.12 849 25.07 6.7 44 41 -5.8 21.6
12:20 1020 30.12 849 25.07 6.4 43.6 40 -6.1 21
12:25 1020 30.12 849 25.07 6.8 44.3 38 -6.6 20.1
12:30 1020 30.12 849 25.07 7.2 45 37 -6.4 20.5
12:35 1020 30.12 849 25.07 7.5 45.6 38 -5.9 21.3
12:40 1020 30.12 849 25.07 6.7 44 39 -6.2 20.8
12:45 1019 30.09 849 25.07 6.4 43.5 41 -6 21.1
12:50 1019 30.09 849 25.07 6.3 43.3 40 -6.3 20.7
12:55 1019 30.09 848 25.04 6.4 43.5 41 -6 21.2
13:00 1019 30.09 848 25.04 6.4 43.6 41 -5.9 21.3
13:05 1019 30.09 848 25.04 6.4 43.5 40 -6.1 20.9
13:10 1019 30.09 848 25.04 7.1 44.7 38 -6.2 20.8
13:15 1019 30.09 848 25.04 7.2 45 38 -6 21.2
13:20 1019 30.09 848 25.04 7 44.7 38 -6.2 20.9
13:25 1019 30.09 848 25.04 6.6 44 39 -6.2 20.8
13:30 1019 30.09 848 25.04 6.8 44.2 35 -7.5 18.5
13:35 1018 30.06 848 25.04 7.6 45.8 37 -6.1 21.1
13:40 1018 30.06 848 25.04 7.8 46 28 -9.7 14.5
13:45 1018 30.06 848 25.04 7.2 44.9 32 -8.6 16.5
13:50 1018 30.06 848 25.04 7.2 45 30 -9 15.8
13:55 1018 30.06 847 25.01 7.2 44.9 29 -9.6 14.7
14:00 1018 30.06 847 25.01 7 44.7 32 -8.5 16.6
14:05 1018 30.06 847 25.01 7.3 45.1 29 -9.6 14.7
14:10 1018 30.06 847 25.01 7.2 45 30 -9.3 15.3
14:15 1018 30.06 847 25.01 7 44.7 31 -9.1 15.7
14:20 1018 30.06 847 25.01 6.9 44.5 31 -9 15.9
14:25 1018 30.06 847 25.01 7.3 45.1 30 -9 15.7
14:30 1018 30.06 847 25.01 7.1 44.9 31 -8.9 15.9
14:35 1018 30.06 847 25.01 6.8 44.3 32 -8.5 16.6
14:40 1018 30.06 847 25.01 6.9 44.4 31 -9.1 15.6
14:45 1017 30.03 847 25.01 7 44.7 29 -9.6 14.6
14:50 1017 30.03 847 25.01 6.9 44.5 30 -9.4 15
14:55 1017 30.03 847 25.01 6.7 44.1 30 -9.5 15
15:00 1017 30.03 847 25.01 6.8 44.2 31 -9.2 15.4
15:05 1018 30.06 847 25.01 7.1 44.8 31 -9 15.8
15:10 1018 30.06 847 25.01 7 44.5 31 -8.8 16.1
15:15 1018 30.06 847 25.01 6.9 44.4 32 -8.7 16.4
15:20 1018 30.06 847 25.01 6.5 43.7 33 -8.7 16.4
15:25 1018 30.06 847 25.01 6.3 43.3 33 -8.8 16.2
15:30 1017 30.03 847 25.01 6.2 43.1 34 -8.6 16.5
15:35 1017 30.03 847 25.01 6.1 43 34 -8.8 16.2
15:40 1017 30.03 846 24.98 5.9 42.6 35 -8.6 16.6
15:45 1017 30.03 846 24.98 5.8 42.4 35 -8.6 16.5
15:50 1017 30.03 846 24.98 5.5 42 36 -8.2 17.2
15:55 1017 30.03 846 24.98 5.5 41.9 36 -8.4 16.9
16:00 1017 30.03 846 24.98 5.5 41.8 36 -8.3 17.1
16:05 1017 30.03 846 24.98 5.4 41.8 37 -8.1 17.3
16:10 1017 30.03 846 24.98 5.4 41.7 37 -8.1 17.4
16:15 1017 30.03 846 24.98 5.5 41.9 33 -9.6 14.7
16:20 1017 30.03 846 24.98 5.4 41.7 35 -9 15.7
16:25 1017 30.03 846 24.98 5.1 41.2 35 -9.2 15.4
16:30 1017 30.03 846 24.98 5.1 41.2 35 -9.1 15.6
16:35 1017 30.03 846 24.98 5.1 41.2 34 -9.7 14.6
16:40 1017 30.03 846 24.98 5 41 34 -9.4 15
16:45 1017 30.03 846 24.98 5 40.9 35 -9.5 15
16:50 1017 30.03 846 24.98 5.3 41.5 34 -9.3 15.3
16:55 1017 30.03 846 24.98 5.6 42 33 -9.4 15.2
17:00 1017 30.03 846 24.98 5.2 41.4 34 -9.3 15.2
17:05 1017 30.03 846 24.98 5.1 41.2 34 -9.4 15.1
17:10 1017 30.03 846 24.98 5.5 41.8 32 -9.8 14.3
17:15 1017 30.03 846 24.98 5.7 42.2 30 -10.5 13
17:20 1017 30.03 846 24.98 5.9 42.7 30 -10.4 13.3
17:25 1017 30.03 846 24.98 5.8 42.5 36 -8.1 17.4
17:30 1017 30.03 846 24.98 4.6 40.4 42 -7.2 19
17:35 1017 30.03 846 24.98 4 39.2 45 -6.9 19.5
17:40 1017 30.03 846 24.98 3.4 38.2 45 -7.4 18.7
17:45 1016 30 846 24.98 3.3 37.9 46 -7.3 18.9
17:50 1016 30 846 24.98 3.2 37.8 45 -7.6 18.4
17:55 1016 30 846 24.98 3.1 37.6 46 -7.5 18.5
18:00 1016 30 845 24.95 3 37.4 46 -7.6 18.3
18:05 1016 30 845 24.95 3 37.4 45 -7.9 17.8
18:10 1016 30 845 24.95 3 37.4 45 -7.9 17.7
18:15 1016 30 845 24.95 3.1 37.5 44 -8 17.6
18:20 1016 30 845 24.95 3.1 37.6 44 -8 17.7
18:25 1016 30 845 24.95 3.1 37.6 43 -8.2 17.2
18:30 1016 30 845 24.95 3.1 37.7 43 -8.2 17.3
18:35 1016 30 845 24.95 3.2 37.7 42 -8.4 16.9
18:40 1016 30 845 24.95 3.2 37.7 44 -8.1 17.5
18:45 1016 30 845 24.95 3.1 37.6 44 -8.2 17.3
18:50 1016 30 845 24.95 3 37.5 44 -8.1 17.4
18:55 1016 30 845 24.95 2.9 37.3 45 -8 17.7
19:00 1016 30 845 24.95 3 37.3 44 -8.1 17.4
19:05 1016 30 845 24.95 3.1 37.5 45 -7.8 18
19:10 1016 30 845 24.95 3.4 38.1 42 -8.2 17.2
19:15 1015 29.97 845 24.95 3.4 38.2 43 -8.1 17.3
19:20 1015 29.97 845 24.95 3.5 38.3 42 -8.1 17.3
19:25 1015 29.97 845 24.95 3.4 38.1 42 -8.2 17.2
19:30 1015 29.97 844 24.92 3.3 37.9 44 -7.9 17.7
19:35 1015 29.97 844 24.92 3.2 37.8 43 -8.1 17.4
19:40 1015 29.97 844 24.92 3.2 37.8 44 -7.9 17.7
19:45 1015 29.97 844 24.92 3.2 37.7 44 -7.9 17.8
19:50 1015 29.97 844 24.92 3.2 37.8 43 -8.1 17.4
19:55 1015 29.97 844 24.92 3.4 38 42 -8.3 17
20:00 1015 29.97 844 24.92 3.5 38.3 41 -8.6 16.6
20:05 1015 29.97 844 24.92 3.7 38.7 41 -8.4 16.9
20:10 1015 29.97 844 24.92 3.8 38.8 40 -8.7 16.4
20:15 1015 29.97 844 24.92 4.3 39.8 39 -8.5 16.6
20:20 1014 29.94 844 24.92 4 39.2 40 -8.5 16.7
20:25 1014 29.94 843 24.89 4.4 39.9 34 -10 14
20:30 1014 29.94 843 24.89 4.8 40.6 37 -8.6 16.5
20:35 1014 29.94 843 24.89 4.5 40.1 37 -8.9 16
20:40 1014 29.94 843 24.89 4.4 40 38 -8.8 16.2
20:45 1014 29.94 843 24.89 4.9 40.8 32 -10.3 13.4
20:50 1014 29.94 844 24.92 6 42.9 29 -10.6 12.9
20:55 1014 29.94 844 24.92 6.5 43.7 29 -10.2 13.6
21:00 1014 29.94 844 24.92 6.5 43.8 29 -10.5 13.1
21:05 1014 29.94 844 24.92 6.6 43.9 30 -10 14.1
21:10 1014 29.94 844 24.92 6.4 43.5 30 -9.9 14.1
21:15 1014 29.94 844 24.92 6.2 43.1 31 -9.8 14.4
21:20 1014 29.94 843 24.89 6.1 43 31 -9.6 14.7
21:25 1014 29.94 844 24.92 6 42.9 32 -9.6 14.8
21:30 1014 29.94 844 24.92 5.9 42.6 32 -9.6 14.8
21:35 1014 29.94 843 24.89 5.9 42.6 32 -9.6 14.7
21:40 1014 29.94 843 24.89 5.8 42.4 33 -9.5 15
21:45 1014 29.94 843 24.89 5.8 42.4 33 -9.5 15
21:50 1014 29.94 843 24.89 5.8 42.4 32 -9.5 14.9
21:55 1014 29.94 843 24.89 5.7 42.3 33 -9.5 15
22:00 1014 29.94 843 24.89 5.7 42.3 32 -9.7 14.6
22:05 1014 29.94 843 24.89 5.7 42.3 33 -9.3 15.2
22:10 1014 29.94 843 24.89 5.6 42.2 33 -9.5 14.9
22:15 1014 29.94 843 24.89 5.6 42.2 34 -9 15.7
22:20 1013 29.91 843 24.89 5.5 42 34 -9 15.9
22:25 1013 29.91 843 24.89 5.5 41.8 34 -9.4 15.2
22:30 1013 29.91 843 24.89 5.5 41.9 32 -9.8 14.4
22:35 1013 29.91 842 24.86 5.9 42.6 30 -10.3 13.5
22:40 1013 29.91 842 24.86 6.3 43.3 30 -9.9 14.2
22:45 1013 29.91 842 24.86 6.3 43.3 29 -10.5 13.1
22:50 1013 29.91 842 24.86 6.5 43.6 30 -10.1 13.9
22:55 1013 29.91 842 24.86 6.4 43.6 29 -10.1 13.8
23:00 1013 29.91 842 24.86 6.3 43.3 31 -9.7 14.5
23:05 1013 29.91 842 24.86 6.2 43.1 31 -9.7 14.6
23:10 1013 29.91 842 24.86 5.9 42.7 31 -9.8 14.4
23:15 1013 29.91 842 24.86 5.8 42.4 33 -9.4 15.1
23:20 1013 29.91 842 24.86 5.4 41.8 35 -8.9 15.9
23:25 1013 29.91 842 24.86 5.3 41.5 35 -9.1 15.7
23:30 1013 29.91 842 24.86 5.1 41.2 35 -9 15.8
23:35 1013 29.91 842 24.86 4.9 40.8 35 -9.3 15.2
23:40 1013 29.91 842 24.86 5 40.9 35 -9.4 15
23:45 1013 29.91 842 24.86 5.2 41.3 35 -9 15.9
23:50 1012 29.88 842 24.86 5.2 41.4 29 -11.5 11.3
23:55 1012 29.88 842 24.86 5.6 42.2 32 -9.6 14.7
24:00 1012 29.88 842 24.86 5.3 41.5 33 -9.7 14.6